Latest Coastal Weather Observations for Horn Island

IDQ60701

Issued at 10:32 am EST Sunday 28 August 2016 (issued every 10 minutes, with the page automatically refreshed every 10 minutes)

About coastal observations | Map of coastal stations | Coastal observations for QLD | Marine services | Other Formats
Station Details ID: 027058 Name: HORN ISLAND Lat: -10.58 Lon: 142.29 Height: 4.0 m
Data from the previous 72 hours. | See also: Recent months at Horn Island
Date/Time
EST
Temp
°C
Wind Pressure Rain since
9am
mm
Weather Cloud Vis
km
Sea
Height
m
Swell
Dir  Spd
kts
Gust
kts
hPa Trend Height
m
Period
s
Dir
28/10:30am 29.2 ESE 17 23 1016.1 - 0.0 - Partly cloudy - - - - -
28/10:00am 27.5 ESE 17 21 1016.4 - 0.0 - Partly cloudy - - - - -
28/09:30am 27.9 ESE 16 24 1016.3 - 0.0 - Partly cloudy - - - - -
28/09:00am 27.8 ESE 17 22 1016.2 - 0.0 - Mostly cloudy - - - - -
28/08:30am 27.0 ESE 17 22 1016.1 - 0.0 - Partly cloudy 10 - - - -
28/08:00am 26.9 ESE 13 19 1015.7 - 0.0 - Partly cloudy 10 - - - -
28/07:30am 26.3 ESE 12 17 1015.5 - 0.0 - Partly cloudy 10 - - - -
28/07:00am 25.8 ESE 10 17 1015.1 - 0.0 - Partly cloudy 10 - - - -
28/06:30am 25.9 ESE 12 17 1014.7 - 0.0 - Partly cloudy 10 - - - -
28/06:00am 25.7 SE 10 13 1014.3 - 0.0 - Mostly cloudy 10 - - - -
28/05:30am 25.5 ESE 10 16 1014.0 - 0.0 - Partly cloudy 10 - - - -
28/05:00am 25.6 SE 11 16 1013.8 - 0.0 - Partly cloudy 10 - - - -
28/04:30am 25.6 ESE 10 15 1013.6 - 0.0 - Partly cloudy 10 - - - -
28/04:00am 25.7 ESE 11 15 1013.4 - 0.0 - Partly cloudy 10 - - - -
28/03:30am 25.7 ESE 11 13 1013.6 - 0.0 - Partly cloudy 10 - - - -
28/03:00am 25.6 ESE 9 12 1013.7 - 0.0 - Mostly clear 10 - - - -
28/02:30am 25.9 ESE 11 15 1013.8 - 0.0 - Partly cloudy 10 - - - -
28/02:00am 26.1 SE 12 17 1013.9 - 0.0 - Partly cloudy 10 - - - -
28/01:30am 26.1 ESE 14 18 1014.2 - 0.0 - Partly cloudy 10 - - - -
28/01:00am 26.2 ESE 12 17 1014.6 - 0.0 - Partly cloudy 10 - - - -
28/12:30am 26.0 SE 11 13 1014.7 - 0.0 - Partly cloudy 10 - - - -
28/12:00am 26.1 ESE 12 17 1014.8 - 0.0 - Cloudy 10 - - - -
 
Date/Time
EST
Temp
°C
Wind Pressure Rain since
9am
mm
Weather Cloud Vis
km
Sea
Height
m
Swell
Dir  Spd
kts
Gust
kts
hPa Trend Height
m
Period
s
Dir
27/11:30pm 26.1 ESE 12 18 1014.8 - 0.0 - Partly cloudy 10 - - - -
27/11:00pm 26.1 ESE 12 17 1015.1 - 0.0 - Partly cloudy 10 - - - -
27/10:30pm 26.0 ESE 13 17 1015.0 - 0.0 - Partly cloudy 10 - - - -
27/10:00pm 25.9 ESE 12 18 1015.0 - 0.0 - Partly cloudy 10 - - - -
27/09:30pm 26.1 SE 14 19 1014.8 - 0.0 - Partly cloudy 10 - - - -
27/09:00pm 26.2 SE 14 19 1014.8 - 0.0 - Cloudy 10 - - - -
27/08:30pm 26.3 SE 13 15 1014.7 - 0.0 - Partly cloudy 10 - - - -
27/08:00pm 26.4 SE 11 16 1014.4 - 0.0 - Partly cloudy 10 - - - -
27/07:30pm 26.4 ESE 11 15 1014.2 - 0.0 - Partly cloudy 10 - - - -
27/07:00pm 26.5 ESE 12 17 1013.8 - 0.0 - Partly cloudy 10 - - - -
27/06:30pm 26.6 SE 13 17 1013.5 - 0.0 - Partly cloudy 10 - - - -
27/06:00pm 27.2 ESE 13 18 1013.3 - 0.0 - - 10 - - - -
27/05:30pm 27.7 ESE 13 19 1013.2 - 0.0 - - 10 - - - -
27/05:00pm 28.3 ESE 13 19 1013.1 - 0.0 - Partly cloudy 10 - - - -
27/04:30pm 28.3 ESE 16 21 1012.9 - 0.0 - Partly cloudy 10 - - - -
27/04:00pm 28.8 E 16 21 1012.6 - 0.0 - - 10 - - - -
27/03:30pm 28.8 E 16 22 1012.6 - 0.0 - - 10 - - - -
27/03:00pm 29.5 E 14 19 1012.9 - 0.0 - - 10 - - - -
27/02:30pm 29.2 E 17 22 1013.3 - 0.0 - - 10 - - - -
27/02:00pm 29.0 E 16 21 1013.5 - 0.0 - - 10 - - - -
27/01:30pm 29.4 E 15 19 1013.9 - 0.0 - - - - - - -
27/01:00pm 29.1 E 14 19 1014.3 - 0.0 - - - - - - -
27/12:30pm 29.7 E 14 20 1014.8 - 0.0 - - - - - - -
27/12:00pm 29.2 E 14 19 1015.0 - 0.0 - - 10 - - - -
27/11:30am 29.1 E 13 18 1015.2 - 0.0 - Partly cloudy 10 - - - -
27/11:00am 29.3 E 15 19 1015.5 - 0.0 - Partly cloudy - - - - -
27/10:30am 29.0 ESE 13 17 1015.6 - 0.0 - Partly cloudy - - - - -
27/10:00am 28.4 ESE 12 16 1015.8 - 0.0 - Partly cloudy - - - - -
27/09:47am 28.2 ESE 12 15 1015.9 - 0.0 - Partly cloudy - - - - -
27/09:30am 28.2 SE 11 16 1015.8 - 0.0 - Partly cloudy - - - - -
27/09:00am 27.2 SE 10 13 1015.4 - 0.0 - Partly cloudy - - - - -
27/08:30am 26.8 SE 10 13 1015.2 - 0.0 - - 10 - - - -
27/08:00am 26.2 SE 10 13 1015.0 - 0.0 - - 10 - - - -
27/07:30am 25.6 SE 7 11 1014.7 - 0.0 - - 10 - - - -
27/07:00am 25.1 SSE 7 10 1014.4 - 0.0 - - 10 - - - -
27/06:30am 25.1 SSE 7 9 1014.2 - 0.0 - - 10 - - - -
27/06:12am 25.1 SSE 7 10 1014.0 - 0.0 - Partly cloudy 10 - - - -
27/06:00am 25.3 SSE 8 10 1013.9 - 0.0 - Cloudy 10 - - - -
27/05:30am 25.3 SE 6 8 1013.6 - 0.0 - Partly cloudy 10 - - - -
27/05:00am 24.7 SSE 4 6 1013.3 - 0.0 - Partly cloudy 10 - - - -
27/04:59am 24.6 SSE 4 6 1013.3 - 0.0 - Partly cloudy 10 - - - -
27/04:30am 23.7 S 4 5 1013.0 - 0.0 - Partly cloudy 10 - - - -
27/04:00am 23.6 CALM 0 0 1013.2 - 0.0 - Partly cloudy 10 - - - -
27/03:30am 23.3 CALM 0 0 1013.4 - 0.0 - Partly cloudy 10 - - - -
27/03:00am 23.7 CALM 0 0 1013.3 - 0.0 - - 10 - - - -
27/02:30am 23.4 CALM 0 0 1013.4 - 0.0 - - 10 - - - -
27/02:00am 23.5 CALM 0 0 1013.5 - 0.0 - - 10 - - - -
27/01:30am 23.8 ESE 2 3 1013.8 - 0.0 - - 10 - - - -
27/01:00am 24.0 CALM 0 0 1014.2 - 0.0 - - 10 - - - -
27/12:30am 24.1 CALM 0 0 1014.4 - 0.0 - - 10 - - - -
27/12:00am 24.5 CALM 0 0 1014.6 - 0.0 - - 10 - - - -
 
Date/Time
EST
Temp
°C
Wind Pressure Rain since
9am
mm
Weather Cloud Vis
km
Sea
Height
m
Swell
Dir  Spd
kts
Gust
kts
hPa Trend Height
m
Period
s
Dir
26/11:30pm 24.6 CALM 0 0 1014.7 - 0.0 - - 10 - - - -
26/11:00pm 24.8 CALM 0 0 1014.7 - 0.0 - Partly cloudy 10 - - - -
26/10:30pm 24.9 CALM 0 0 1014.6 - 0.0 - Partly cloudy 10 - - - -
26/10:00pm 24.8 ESE 1 3 1014.4 - 0.0 - - 10 - - - -
26/09:30pm 25.2 CALM 0 2 1014.1 - 0.0 - - 10 - - - -
26/09:00pm 25.6 ESE 3 4 1013.9 - 0.0 - Partly cloudy 10 - - - -
26/08:30pm 25.6 E 2 3 1013.7 - 0.0 - - 10 - - - -
26/08:00pm 25.8 E 4 4 1013.2 - 0.0 - - 10 - - - -
26/07:30pm 26.1 NE 3 4 1012.7 - 0.0 - Partly cloudy 10 - - - -
26/07:00pm 26.4 ENE 4 4 1012.5 - 0.0 - Cloudy 10 - - - -
26/06:30pm 26.6 E 4 5 1012.0 - 0.0 - Cloudy 10 - - - -
26/06:00pm 26.9 ENE 5 7 1011.9 - 0.0 - Cloudy 10 - - - -
26/05:30pm 27.6 NNE 5 7 1011.6 - 0.0 - Cloudy 10 - - - -
26/05:00pm 27.7 N 6 7 1011.3 - 0.0 - Cloudy 10 - - - -
26/04:30pm 28.4 N 6 9 1011.2 - 0.0 - Partly cloudy 10 - - - -
26/04:00pm 28.6 N 7 8 1011.0 - 0.0 - Partly cloudy 10 - - - -
26/03:30pm 28.7 N 7 9 1011.1 - 0.0 - Partly cloudy - - - - -
26/03:14pm 28.5 N 7 10 1011.2 - 0.0 - Partly cloudy 10 - - - -
26/03:00pm 28.6 N 8 11 1011.4 - 0.0 - Cloudy 10 - - - -
26/02:45pm 28.7 N 9 13 1011.4 - 0.0 - Partly cloudy 10 - - - -
26/02:30pm 29.1 NE 10 13 1011.5 - 0.0 - Partly cloudy 10 - - - -
26/02:00pm 29.8 NE 8 12 1011.4 - 0.0 - - 10 - - - -
26/01:30pm 28.9 NNE 10 12 1011.7 - 0.0 - - 10 - - - -
26/01:00pm 29.3 ENE 10 13 1012.0 - 0.0 - Partly cloudy - - - - -
26/12:30pm 29.8 N 10 13 1012.2 - 0.0 - Partly cloudy - - - - -
26/12:00pm 30.6 SE 7 11 1012.6 - 0.0 - Mostly clear - - - - -
26/11:30am 30.4 SE 5 10 1013.0 - 0.0 - - 10 - - - -
26/11:00am 29.9 SSE 7 11 1013.4 - 0.0 - - 10 - - - -
26/10:30am 29.3 S 6 9 1013.5 - 0.0 - - 10 - - - -
26/10:00am 28.6 SSE 6 9 1013.7 - 0.0 - - 10 - - - -
26/09:30am 28.3 S 7 9 1013.8 - 0.0 - - 10 - - - -
26/09:00am 27.4 SSE 6 9 1013.7 - 0.0 - - - - - - -
26/08:30am 26.6 S 7 9 1013.5 - 0.0 - - - - - - -
26/08:00am 25.3 S 4 6 1013.2 - 0.0 - - 10 - - - -
26/07:30am 24.1 SSW 5 6 1013.0 - 0.0 - - 10 - - - -
26/07:00am 22.6 CALM 0 0 1012.8 - 0.0 - - 10 - - - -
26/06:30am 22.7 CALM 0 0 1012.6 - 0.0 - - 10 - - - -
26/06:00am 23.0 CALM 0 0 1012.5 - 0.0 - - 10 - - - -
26/05:30am 23.6 CALM 0 0 1012.4 - 0.0 - - 10 - - - -
26/05:00am 23.8 CALM 0 0 1012.2 - 0.0 - - 10 - - - -
26/04:30am 24.0 CALM 0 0 1012.2 - 0.0 - - 10 - - - -
26/04:00am 24.4 CALM 0 0 1012.4 - 0.0 - - 10 - - - -
26/03:30am 24.7 CALM 0 0 1012.2 - 0.0 - - 10 - - - -
26/03:00am 25.1 S 3 4 1012.2 - 0.0 - - 10 - - - -
26/02:30am 25.4 S 4 5 1012.2 - 0.0 - Partly cloudy 10 - - - -
26/02:13am 25.4 SSE 3 4 1012.3 - 0.0 - Partly cloudy 10 - - - -
26/02:00am 25.4 SSE 4 5 1012.4 - 0.0 - Partly cloudy 10 - - - -
26/01:58am 25.3 SSE 4 5 1012.4 - 0.0 - Partly cloudy 10 - - - -
26/01:30am 24.9 CALM 0 0 1012.4 - 0.0 - Partly cloudy 10 - - - -
26/01:00am 24.9 SE 3 4 1012.4 - 0.0 - Partly cloudy 10 - - - -
26/12:30am 24.6 ESE 3 4 1012.5 - 0.0 - - 10 - - - -
26/12:00am 24.7 CALM 0 0 1012.6 - 0.0 - Mostly clear 10 - - - -
 
Date/Time
EST
Temp
°C
Wind Pressure Rain since
9am
mm
Weather Cloud Vis
km
Sea
Height
m
Swell
Dir  Spd
kts
Gust
kts
hPa Trend Height
m
Period
s
Dir
25/11:30pm 24.7 CALM 0 0 1012.6 - 0.0 - Partly cloudy 10 - - - -
25/11:00pm 25.1 CALM 0 1 1012.6 - 0.0 - Partly cloudy 10 - - - -
25/10:30pm 25.2 CALM 0 0 1012.5 - 0.0 - Partly cloudy 10 - - - -
25/10:00pm 25.2 CALM 0 1 1012.4 - 0.0 - Partly cloudy 10 - - - -
25/09:30pm 25.5 ESE 2 3 1012.3 - 0.0 - Partly cloudy 10 - - - -
25/09:29pm 25.5 ESE 2 3 1012.3 - 0.0 - Partly cloudy 10 - - - -
25/09:08pm 25.4 CALM 0 0 1012.0 - 0.0 - Partly cloudy 10 - - - -
25/09:00pm 25.4 CALM 0 1 1011.9 - 0.0 - Mostly cloudy 10 - - - -
25/08:30pm 25.3 ESE 3 4 1011.4 - 0.0 - Partly cloudy 8 - - - -
25/08:00pm 25.6 CALM 0 0 1011.1 - 0.0 - Partly cloudy 10 - - - -
25/07:30pm 25.8 CALM 0 0 1010.9 - 0.0 - Partly cloudy 10 - - - -
25/07:00pm 26.1 CALM 0 3 1010.4 - 0.0 - Partly cloudy 10 - - - -
25/06:30pm 26.3 NE 4 5 1010.0 - 0.0 - - 10 - - - -
25/06:00pm 26.9 NE 5 6 1009.5 - 0.0 - - 10 - - - -
25/05:30pm 27.9 ENE 6 7 1009.0 - 0.0 - - 10 - - - -
25/05:00pm 27.8 NNE 7 8 1008.8 - 0.0 - - 10 - - - -
25/04:30pm 28.4 NNE 7 11 1008.7 - 0.0 - - 10 - - - -
25/04:00pm 28.8 N 6 9 1008.6 - 0.0 - - 10 - - - -
25/03:30pm 28.4 N 7 10 1008.8 - 0.0 - - 10 - - - -
25/03:00pm 28.9 N 9 11 1009.0 - 0.0 - - 10 - - - -
25/02:30pm 28.8 N 8 11 1009.3 - 0.0 - Partly cloudy 10 - - - -
25/02:00pm 30.5 E 7 10 1009.6 - 0.0 - Partly cloudy - - - - -
25/01:30pm 29.7 E 10 14 1010.0 - 0.0 - Partly cloudy - - - - -
25/01:00pm 30.6 E 6 11 1010.2 - 0.0 - Partly cloudy - - - - -
25/12:30pm 29.7 S 6 10 1010.6 - 0.0 - Partly cloudy 10 - - - -
25/12:00pm 29.3 SSE 6 8 1011.0 - 0.0 - - 10 - - - -
25/11:30am 29.1 S 6 10 1011.5 - 0.0 - - - - - - -
25/11:00am 28.5 SSE 6 8 1011.7 - 0.0 - - 10 - - - -

Other Formats:

Comma delimited format used in spreadsheet applications
http://www.bom.gov.au/fwo/IDQ60701/IDQ60701.94174.axf

JavaScript Object Notation format (JSON) in row-major order
http://www.bom.gov.au/fwo/IDQ60701/IDQ60701.94174.json